Time,TemperatureF,DewpointF,PressureIn,WindDirection,WindDirectionDegrees,WindSpeedMPH,WindSpeedGustMPH,Humidity,HourlyPrecipIn,Conditions,Clouds,dailyrainin,SoftwareType,DateUTC
2013-05-07 00:00:00,52.0,47.6,29.83,N/A,-327680,0.0,0.0,85,0.00,,,0.05,Wunderground PWS Mod,2013-05-07 04:00:00,
2013-05-07 00:04:00,55.3,48.6,29.82,West,261,0.0,9.0,78,0.00,,,0.56,Wunderground PWS Mod,2013-05-07 04:04:00,
2013-05-07 00:05:00,52.0,47.6,29.83,N/A,-327680,0.0,0.0,85,0.00,,,0.05,Wunderground PWS Mod,2013-05-07 04:05:00,
2013-05-07 00:10:00,55.0,48.3,29.82,West,261,0.0,9.0,78,0.00,,,0.56,Wunderground PWS Mod,2013-05-07 04:10:00,
2013-05-07 00:14:00,54.8,48.1,29.82,West,261,0.0,9.0,78,0.00,,,0.56,Wunderground PWS Mod,2013-05-07 04:14:00,
2013-05-07 00:15:00,52.0,47.6,29.83,N/A,-327680,0.0,0.0,85,0.00,,,0.05,Wunderground PWS Mod,2013-05-07 04:15:00,
2013-05-07 00:20:00,52.0,47.6,29.83,N/A,-327680,0.0,0.0,85,0.00,,,0.05,Wunderground PWS Mod,2013-05-07 04:20:00,
2013-05-07 00:24:00,54.4,48.0,29.82,West,261,0.0,9.0,79,0.00,,,0.56,Wunderground PWS Mod,2013-05-07 04:24:00,
2013-05-07 00:25:00,52.0,47.6,29.83,N/A,-327680,0.0,0.0,85,0.00,,,0.05,Wunderground PWS Mod,2013-05-07 04:25:00,
2013-05-07 00:29:00,54.2,48.2,29.82,West,261,0.0,9.0,80,0.00,,,0.56,Wunderground PWS Mod,2013-05-07 04:29:00,
2013-05-07 00:30:00,52.0,47.6,29.83,N/A,-327680,0.0,0.0,85,0.00,,,0.05,Wunderground PWS Mod,2013-05-07 04:30:00,
2013-05-07 00:34:00,54.2,48.5,29.82,West,261,0.0,9.0,81,0.00,,,0.56,Wunderground PWS Mod,2013-05-07 04:34:00,
2013-05-07 00:35:00,52.0,47.6,29.83,N/A,-327680,0.0,0.0,85,0.00,,,0.05,Wunderground PWS Mod,2013-05-07 04:35:00,
2013-05-07 00:40:00,52.0,47.6,29.83,N/A,-327680,0.0,0.0,85,0.00,,,0.05,Wunderground PWS Mod,2013-05-07 04:40:00,
2013-05-07 00:44:00,53.9,48.2,29.83,West,261,2.0,9.0,81,0.00,,,0.56,Wunderground PWS Mod,2013-05-07 04:44:00,
2013-05-07 00:45:00,51.1,47.7,29.82,N/A,-327680,0.0,0.0,88,0.00,,,0.05,Wunderground PWS Mod,2013-05-07 04:45:00,
2013-05-07 00:49:00,53.8,48.1,29.83,West,261,0.0,9.0,81,0.00,,,0.56,Wunderground PWS Mod,2013-05-07 04:49:00,
2013-05-07 00:50:00,51.1,47.7,29.82,N/A,-327680,0.0,0.0,88,0.00,,,0.05,Wunderground PWS Mod,2013-05-07 04:50:00,
2013-05-07 00:55:00,51.1,47.7,29.82,N/A,-327680,0.0,0.0,88,0.00,,,0.05,Wunderground PWS Mod,2013-05-07 04:55:00,
2013-05-07 00:59:00,53.5,47.8,29.82,West,261,0.0,9.0,81,0.00,,,0.56,Wunderground PWS Mod,2013-05-07 04:59:00,
2013-05-07 01:00:00,51.1,47.7,29.82,N/A,-327680,0.0,0.0,88,0.00,,,0.05,Wunderground PWS Mod,2013-05-07 05:00:00,
2013-05-07 01:05:00,51.1,47.7,29.82,N/A,-327680,0.0,0.0,88,0.00,,,0.05,Wunderground PWS Mod,2013-05-07 05:05:00,
2013-05-07 01:09:00,52.8,48.1,29.82,West,261,0.0,9.0,84,0.00,,,0.00,Wunderground PWS Mod,2013-05-07 05:09:00,
2013-05-07 01:10:00,51.1,47.7,29.82,N/A,-327680,0.0,0.0,88,0.00,,,0.05,Wunderground PWS Mod,2013-05-07 05:10:00,
2013-05-07 01:15:00,50.4,47.3,29.81,N/A,-327680,0.0,0.0,89,0.00,,,0.05,Wunderground PWS Mod,2013-05-07 05:15:00,
2013-05-07 01:19:00,52.3,47.9,29.83,West,261,0.0,9.0,85,0.00,,,0.00,Wunderground PWS Mod,2013-05-07 05:19:00,
2013-05-07 01:20:00,50.4,47.3,29.81,N/A,-327680,0.0,0.0,89,0.00,,,0.05,Wunderground PWS Mod,2013-05-07 05:20:00,
2013-05-07 01:24:00,52.2,47.8,29.83,West,261,0.0,9.0,85,0.00,,,0.00,Wunderground PWS Mod,2013-05-07 05:24:00,
2013-05-07 01:25:00,50.4,47.3,29.81,N/A,-327680,0.0,0.0,89,0.00,,,0.05,Wunderground PWS Mod,2013-05-07 05:25:00,
2013-05-07 01:30:00,50.4,47.3,29.81,N/A,-327680,0.0,0.0,89,0.00,,,0.05,Wunderground PWS Mod,2013-05-07 05:30:00,
2013-05-07 01:34:00,51.9,47.8,29.83,West,261,0.0,9.0,86,0.00,,,0.00,Wunderground PWS Mod,2013-05-07 05:34:00,
2013-05-07 01:35:00,50.4,47.3,29.81,N/A,-327680,0.0,0.0,89,0.00,,,0.05,Wunderground PWS Mod,2013-05-07 05:35:00,
2013-05-07 01:40:00,50.4,47.3,29.81,N/A,-327680,0.0,0.0,89,0.00,,,0.05,Wunderground PWS Mod,2013-05-07 05:40:00,
2013-05-07 01:44:00,51.6,47.9,29.82,West,261,0.0,9.0,87,0.00,,,0.00,Wunderground PWS Mod,2013-05-07 05:44:00,
2013-05-07 01:45:00,49.1,46.3,29.81,N/A,-327680,0.0,0.0,90,0.00,,,0.05,Wunderground PWS Mod,2013-05-07 05:45:00,
2013-05-07 01:50:00,49.1,46.3,29.81,N/A,-327680,0.0,0.0,90,0.00,,,0.05,Wunderground PWS Mod,2013-05-07 05:50:00,
2013-05-07 01:54:00,51.3,47.6,29.82,West,261,0.0,9.0,87,0.00,,,0.00,Wunderground PWS Mod,2013-05-07 05:54:00,
2013-05-07 01:55:00,49.1,46.3,29.81,N/A,-327680,0.0,0.0,90,0.00,,,0.05,Wunderground PWS Mod,2013-05-07 05:55:00,
2013-05-07 01:59:00,51.1,47.7,29.82,West,261,0.0,9.0,88,0.00,,,0.00,Wunderground PWS Mod,2013-05-07 05:59:00,
2013-05-07 02:00:00,49.1,46.3,29.81,N/A,-327680,0.0,0.0,90,0.00,,,0.05,Wunderground PWS Mod,2013-05-07 06:00:00,
2013-05-07 02:05:00,49.1,46.3,29.81,N/A,-327680,0.0,0.0,90,0.00,,,0.05,Wunderground PWS Mod,2013-05-07 06:05:00,
2013-05-07 02:09:00,51.0,48.2,29.82,West,261,0.0,9.0,90,0.00,,,0.00,Wunderground PWS Mod,2013-05-07 06:09:00,
2013-05-07 02:10:00,49.1,46.3,29.81,N/A,-327680,0.0,0.0,90,0.00,,,0.05,Wunderground PWS Mod,2013-05-07 06:10:00,
2013-05-07 02:15:00,48.6,46.7,29.81,N/A,-327680,0.0,0.0,93,0.00,,,0.05,Wunderground PWS Mod,2013-05-07 06:15:00,
2013-05-07 02:19:00,50.7,47.6,29.82,West,261,0.0,9.0,89,0.00,,,0.00,Wunderground PWS Mod,2013-05-07 06:19:00,
2013-05-07 02:20:00,48.6,46.7,29.81,N/A,-327680,0.0,0.0,93,0.00,,,0.05,Wunderground PWS Mod,2013-05-07 06:20:00,
2013-05-07 02:25:00,48.6,46.7,29.81,N/A,-327680,0.0,0.0,93,0.00,,,0.05,Wunderground PWS Mod,2013-05-07 06:25:00,
2013-05-07 02:29:00,50.4,47.3,29.81,West,261,0.0,9.0,89,0.00,,,0.00,Wunderground PWS Mod,2013-05-07 06:29:00,
2013-05-07 02:30:00,48.6,46.7,29.81,N/A,-327680,0.0,0.0,93,0.00,,,0.05,Wunderground PWS Mod,2013-05-07 06:30:00,
2013-05-07 02:35:00,48.6,46.7,29.81,N/A,-327680,0.0,0.0,93,0.00,,,0.05,Wunderground PWS Mod,2013-05-07 06:35:00,
2013-05-07 02:39:00,50.1,47.0,29.81,West,261,0.0,9.0,89,0.00,,,0.00,Wunderground PWS Mod,2013-05-07 06:39:00,
2013-05-07 02:40:00,48.6,46.7,29.81,N/A,-327680,0.0,0.0,93,0.00,,,0.05,Wunderground PWS Mod,2013-05-07 06:40:00,
2013-05-07 02:45:00,48.2,46.8,29.81,ESE,120,0.0,3.0,95,0.00,,,0.05,Wunderground PWS Mod,2013-05-07 06:45:00,
2013-05-07 02:49:00,49.6,46.5,29.81,West,261,0.0,9.0,89,0.00,,,0.00,Wunderground PWS Mod,2013-05-07 06:49:00,
2013-05-07 02:50:00,48.2,46.8,29.81,ESE,120,0.0,3.0,95,0.00,,,0.05,Wunderground PWS Mod,2013-05-07 06:50:00,
2013-05-07 02:55:00,48.2,46.8,29.81,ESE,120,0.0,3.0,95,0.00,,,0.05,Wunderground PWS Mod,2013-05-07 06:55:00,
2013-05-07 02:59:00,49.1,46.3,29.81,West,261,0.0,9.0,90,0.00,,,0.00,Wunderground PWS Mod,2013-05-07 06:59:00,
2013-05-07 03:00:00,48.2,46.8,29.81,ESE,120,0.0,3.0,95,0.00,,,0.05,Wunderground PWS Mod,2013-05-07 07:00:00,
2013-05-07 03:04:00,48.9,46.1,29.81,West,261,0.0,9.0,90,0.00,,,0.00,Wunderground PWS Mod,2013-05-07 07:04:00,
2013-05-07 03:05:00,48.2,46.8,29.81,ESE,120,0.0,3.0,95,0.00,,,0.05,Wunderground PWS Mod,2013-05-07 07:05:00,
2013-05-07 03:10:00,48.2,46.8,29.81,ESE,120,0.0,3.0,95,0.00,,,0.05,Wunderground PWS Mod,2013-05-07 07:10:00,
2013-05-07 03:14:00,48.8,46.3,29.81,West,261,0.0,9.0,91,0.00,,,0.00,Wunderground PWS Mod,2013-05-07 07:14:00,
2013-05-07 03:15:00,47.7,46.6,29.81,ESE,120,0.0,3.0,96,0.00,,,0.05,Wunderground PWS Mod,2013-05-07 07:15:00,
2013-05-07 03:20:00,47.7,46.6,29.81,ESE,120,0.0,3.0,96,0.00,,,0.05,Wunderground PWS Mod,2013-05-07 07:20:00,
2013-05-07 03:24:00,48.6,46.4,29.81,West,261,0.0,9.0,92,0.00,,,0.00,Wunderground PWS Mod,2013-05-07 07:24:00,
2013-05-07 03:25:00,47.7,46.6,29.81,ESE,120,0.0,3.0,96,0.00,,,0.05,Wunderground PWS Mod,2013-05-07 07:25:00,
2013-05-07 03:30:00,47.7,46.6,29.81,ESE,120,0.0,3.0,96,0.00,,,0.05,Wunderground PWS Mod,2013-05-07 07:30:00,
2013-05-07 03:34:00,48.5,46.6,29.81,West,261,0.0,9.0,93,0.00,,,0.00,Wunderground PWS Mod,2013-05-07 07:34:00,
2013-05-07 03:35:00,47.7,46.6,29.81,ESE,120,0.0,3.0,96,0.00,,,0.05,Wunderground PWS Mod,2013-05-07 07:35:00,
2013-05-07 03:39:00,48.3,46.4,29.81,West,261,0.0,9.0,93,0.00,,,0.00,Wunderground PWS Mod,2013-05-07 07:39:00,
2013-05-07 03:40:00,47.7,46.6,29.81,ESE,120,0.0,3.0,96,0.00,,,0.05,Wunderground PWS Mod,2013-05-07 07:40:00,
2013-05-07 03:45:00,46.8,45.7,29.80,N/A,-327680,0.0,0.0,96,0.00,,,0.05,Wunderground PWS Mod,2013-05-07 07:45:00,
2013-05-07 03:49:00,48.2,46.6,29.81,West,261,0.0,9.0,94,0.00,,,0.00,Wunderground PWS Mod,2013-05-07 07:49:00,
2013-05-07 03:50:00,46.8,45.7,29.80,N/A,-327680,0.0,0.0,96,0.00,,,0.05,Wunderground PWS Mod,2013-05-07 07:50:00,
2013-05-07 03:55:00,46.8,45.7,29.80,N/A,-327680,0.0,0.0,96,0.00,,,0.05,Wunderground PWS Mod,2013-05-07 07:55:00,
2013-05-07 03:59:00,48.2,46.8,29.81,West,261,2.0,9.0,95,0.00,,,0.00,Wunderground PWS Mod,2013-05-07 07:59:00,
2013-05-07 04:00:00,46.8,45.7,29.80,N/A,-327680,0.0,0.0,96,0.00,,,0.05,Wunderground PWS Mod,2013-05-07 08:00:00,
2013-05-07 04:05:00,46.8,45.7,29.80,N/A,-327680,0.0,0.0,96,0.00,,,0.05,Wunderground PWS Mod,2013-05-07 08:05:00,
2013-05-07 04:09:00,48.2,46.8,29.81,West,261,0.0,9.0,95,0.00,,,0.00,Wunderground PWS Mod,2013-05-07 08:09:00,
2013-05-07 04:10:00,46.8,45.7,29.80,N/A,-327680,0.0,0.0,96,0.00,,,0.05,Wunderground PWS Mod,2013-05-07 08:10:00,
2013-05-07 04:15:00,45.7,44.6,29.80,N/A,-327680,0.0,0.0,96,0.00,,,0.05,Wunderground PWS Mod,2013-05-07 08:15:00,
2013-05-07 04:19:00,48.0,46.9,29.81,West,261,0.0,9.0,96,0.00,,,0.00,Wunderground PWS Mod,2013-05-07 08:19:00,
2013-05-07 04:20:00,45.7,44.6,29.80,N/A,-327680,0.0,0.0,96,0.00,,,0.05,Wunderground PWS Mod,2013-05-07 08:20:00,
2013-05-07 04:25:00,45.7,44.6,29.80,N/A,-327680,0.0,0.0,96,0.00,,,0.05,Wunderground PWS Mod,2013-05-07 08:25:00,
2013-05-07 04:29:00,47.7,46.6,29.81,West,261,0.0,9.0,96,0.00,,,0.00,Wunderground PWS Mod,2013-05-07 08:29:00,
2013-05-07 04:30:00,45.7,44.6,29.80,N/A,-327680,0.0,0.0,96,0.00,,,0.05,Wunderground PWS Mod,2013-05-07 08:30:00,
2013-05-07 04:35:00,45.7,44.6,29.80,N/A,-327680,0.0,0.0,96,0.00,,,0.05,Wunderground PWS Mod,2013-05-07 08:35:00,
2013-05-07 04:39:00,47.4,46.3,29.81,West,261,0.0,9.0,96,0.00,,,0.00,Wunderground PWS Mod,2013-05-07 08:39:00,
2013-05-07 04:40:00,45.7,44.6,29.80,N/A,-327680,0.0,0.0,96,0.00,,,0.05,Wunderground PWS Mod,2013-05-07 08:40:00,
2013-05-07 04:45:00,45.5,44.7,29.80,N/A,-327680,0.0,0.0,97,0.00,,,0.05,Wunderground PWS Mod,2013-05-07 08:45:00,
2013-05-07 04:49:00,47.1,46.0,29.80,West,261,0.0,9.0,96,0.00,,,0.00,Wunderground PWS Mod,2013-05-07 08:49:00,
2013-05-07 04:50:00,45.5,44.7,29.80,N/A,-327680,0.0,0.0,97,0.00,,,0.05,Wunderground PWS Mod,2013-05-07 08:50:00,
2013-05-07 04:55:00,45.5,44.7,29.80,N/A,-327680,0.0,0.0,97,0.00,,,0.05,Wunderground PWS Mod,2013-05-07 08:55:00,
2013-05-07 04:59:00,46.8,45.7,29.80,West,261,0.0,9.0,96,0.00,,,0.00,Wunderground PWS Mod,2013-05-07 08:59:00,
2013-05-07 05:00:00,45.5,44.7,29.80,N/A,-327680,0.0,0.0,97,0.00,,,0.05,Wunderground PWS Mod,2013-05-07 09:00:00,
2013-05-07 05:05:00,45.5,44.7,29.80,N/A,-327680,0.0,0.0,97,0.00,,,0.05,Wunderground PWS Mod,2013-05-07 09:05:00,
2013-05-07 05:09:00,46.4,45.3,29.80,West,261,0.0,9.0,96,0.00,,,0.00,Wunderground PWS Mod,2013-05-07 09:09:00,
2013-05-07 05:10:00,45.5,44.7,29.80,N/A,-327680,0.0,0.0,97,0.00,,,0.05,Wunderground PWS Mod,2013-05-07 09:10:00,
2013-05-07 05:15:00,44.9,44.1,29.82,East,90,0.0,1.0,97,0.00,,,0.05,Wunderground PWS Mod,2013-05-07 09:15:00,
2013-05-07 05:19:00,46.0,44.9,29.80,West,261,0.0,9.0,96,0.00,,,0.00,Wunderground PWS Mod,2013-05-07 09:19:00,
2013-05-07 05:20:00,44.9,44.1,29.82,East,90,0.0,1.0,97,0.00,,,0.05,Wunderground PWS Mod,2013-05-07 09:20:00,
2013-05-07 05:25:00,44.9,44.1,29.82,East,90,0.0,1.0,97,0.00,,,0.05,Wunderground PWS Mod,2013-05-07 09:25:00,
2013-05-07 05:29:00,45.7,44.6,29.80,West,261,0.0,9.0,96,0.00,,,0.00,Wunderground PWS Mod,2013-05-07 09:29:00,
2013-05-07 05:30:00,44.9,44.1,29.82,East,90,0.0,1.0,97,0.00,,,0.05,Wunderground PWS Mod,2013-05-07 09:30:00,
2013-05-07 05:35:00,44.9,44.1,29.82,East,90,0.0,1.0,97,0.00,,,0.05,Wunderground PWS Mod,2013-05-07 09:35:00,
2013-05-07 05:39:00,45.7,44.9,29.80,West,261,0.0,9.0,97,0.00,,,0.00,Wunderground PWS Mod,2013-05-07 09:39:00,
2013-05-07 05:40:00,44.9,44.1,29.82,East,90,0.0,1.0,97,0.00,,,0.05,Wunderground PWS Mod,2013-05-07 09:40:00,
2013-05-07 05:45:00,44.8,44.3,29.82,N/A,-327680,0.0,0.0,98,0.00,,,0.05,Wunderground PWS Mod,2013-05-07 09:45:00,
2013-05-07 05:49:00,45.5,44.7,29.80,West,261,0.0,9.0,97,0.00,,,0.00,Wunderground PWS Mod,2013-05-07 09:49:00,
2013-05-07 05:50:00,44.8,44.3,29.82,N/A,-327680,0.0,0.0,98,0.00,,,0.05,Wunderground PWS Mod,2013-05-07 09:50:00,
2013-05-07 05:55:00,44.8,44.3,29.82,N/A,-327680,0.0,0.0,98,0.00,,,0.05,Wunderground PWS Mod,2013-05-07 09:55:00,
2013-05-07 05:59:00,45.5,44.7,29.80,West,261,0.0,9.0,97,0.00,,,0.00,Wunderground PWS Mod,2013-05-07 09:59:00,
2013-05-07 06:00:00,44.8,44.3,29.82,N/A,-327680,0.0,0.0,98,0.00,,,0.05,Wunderground PWS Mod,2013-05-07 10:00:00,
2013-05-07 06:05:00,44.8,44.3,29.82,N/A,-327680,0.0,0.0,98,0.00,,,0.05,Wunderground PWS Mod,2013-05-07 10:05:00,
2013-05-07 06:09:00,45.2,44.4,29.80,West,262,0.0,9.0,97,0.00,,,0.00,Wunderground PWS Mod,2013-05-07 10:09:00,
2013-05-07 06:10:00,44.8,44.3,29.82,N/A,-327680,0.0,0.0,98,0.00,,,0.05,Wunderground PWS Mod,2013-05-07 10:10:00,
2013-05-07 06:15:00,45.5,45.0,29.83,N/A,-327680,0.0,0.0,98,0.00,,,0.05,Wunderground PWS Mod,2013-05-07 10:15:00,
2013-05-07 06:19:00,45.1,44.3,29.81,SSW,204,0.0,9.0,97,0.00,,,0.00,Wunderground PWS Mod,2013-05-07 10:19:00,
2013-05-07 06:20:00,45.5,45.0,29.83,N/A,-327680,0.0,0.0,98,0.00,,,0.05,Wunderground PWS Mod,2013-05-07 10:20:00,
2013-05-07 06:25:00,45.5,45.0,29.83,N/A,-327680,0.0,0.0,98,0.00,,,0.05,Wunderground PWS Mod,2013-05-07 10:25:00,
2013-05-07 06:29:00,44.9,44.1,29.82,SSW,204,0.0,9.0,97,0.00,,,0.00,Wunderground PWS Mod,2013-05-07 10:29:00,
2013-05-07 06:30:00,45.5,45.0,29.83,N/A,-327680,0.0,0.0,98,0.00,,,0.05,Wunderground PWS Mod,2013-05-07 10:30:00,
2013-05-07 06:35:00,45.5,45.0,29.83,N/A,-327680,0.0,0.0,98,0.00,,,0.05,Wunderground PWS Mod,2013-05-07 10:35:00,
2013-05-07 06:39:00,44.9,44.4,29.82,NE,47,0.0,9.0,98,0.00,,,0.00,Wunderground PWS Mod,2013-05-07 10:39:00,
2013-05-07 06:40:00,45.5,45.0,29.83,N/A,-327680,0.0,0.0,98,0.00,,,0.05,Wunderground PWS Mod,2013-05-07 10:40:00,
2013-05-07 06:45:00,47.0,46.7,29.83,NE,40,0.0,1.0,99,0.00,,,0.05,Wunderground PWS Mod,2013-05-07 10:45:00,
2013-05-07 06:49:00,44.9,44.4,29.82,East,91,0.0,9.0,98,0.00,,,0.00,Wunderground PWS Mod,2013-05-07 10:49:00,
2013-05-07 06:50:00,47.0,46.7,29.83,NE,40,0.0,1.0,99,0.00,,,0.05,Wunderground PWS Mod,2013-05-07 10:50:00,
2013-05-07 06:55:00,47.0,46.7,29.83,NE,40,0.0,1.0,99,0.00,,,0.05,Wunderground PWS Mod,2013-05-07 10:55:00,
2013-05-07 06:59:00,44.8,44.3,29.82,East,92,0.0,9.0,98,0.00,,,0.00,Wunderground PWS Mod,2013-05-07 10:59:00,
2013-05-07 07:00:00,47.0,46.7,29.83,NE,40,0.0,1.0,99,0.00,,,0.05,Wunderground PWS Mod,2013-05-07 11:00:00,
2013-05-07 07:04:00,44.9,44.4,29.82,East,91,0.0,9.0,98,0.00,,,0.00,Wunderground PWS Mod,2013-05-07 11:04:00,
2013-05-07 07:05:00,47.0,46.7,29.83,NE,40,0.0,1.0,99,0.00,,,0.05,Wunderground PWS Mod,2013-05-07 11:05:00,
2013-05-07 07:10:00,47.0,46.7,29.83,NE,40,0.0,1.0,99,0.00,,,0.05,Wunderground PWS Mod,2013-05-07 11:10:00,
2013-05-07 07:14:00,45.1,44.6,29.83,East,91,0.0,9.0,98,0.00,,,0.00,Wunderground PWS Mod,2013-05-07 11:14:00,
2013-05-07 07:15:00,49.5,49.2,29.84,NE,40,0.0,3.0,99,0.00,,,0.05,Wunderground PWS Mod,2013-05-07 11:15:00,
2013-05-07 07:20:00,49.5,49.2,29.84,NE,40,0.0,3.0,99,0.00,,,0.05,Wunderground PWS Mod,2013-05-07 11:20:00,
2013-05-07 07:24:00,45.4,44.9,29.83,East,91,0.0,9.0,98,0.00,,,0.00,Wunderground PWS Mod,2013-05-07 11:24:00,
2013-05-07 07:25:00,49.5,49.2,29.84,NE,40,0.0,3.0,99,0.00,,,0.05,Wunderground PWS Mod,2013-05-07 11:25:00,
2013-05-07 07:30:00,49.5,49.2,29.84,NE,40,0.0,3.0,99,0.00,,,0.05,Wunderground PWS Mod,2013-05-07 11:30:00,
2013-05-07 07:34:00,45.7,45.2,29.83,East,91,0.0,9.0,98,0.00,,,0.00,Wunderground PWS Mod,2013-05-07 11:34:00,
2013-05-07 07:35:00,49.5,49.2,29.84,NE,40,0.0,3.0,99,0.00,,,0.05,Wunderground PWS Mod,2013-05-07 11:35:00,
2013-05-07 07:39:00,45.8,45.3,29.83,East,91,0.0,9.0,98,0.00,,,0.00,Wunderground PWS Mod,2013-05-07 11:39:00,
2013-05-07 07:40:00,49.5,49.2,29.84,NE,40,0.0,3.0,99,0.00,,,0.05,Wunderground PWS Mod,2013-05-07 11:40:00,
2013-05-07 07:45:00,51.9,51.1,29.85,NE,40,0.0,2.0,97,0.00,,,0.05,Wunderground PWS Mod,2013-05-07 11:45:00,
2013-05-07 07:49:00,46.2,45.7,29.83,East,91,0.0,9.0,98,0.00,,,0.00,Wunderground PWS Mod,2013-05-07 11:49:00,
2013-05-07 07:50:00,51.9,51.1,29.85,NE,40,0.0,2.0,97,0.00,,,0.05,Wunderground PWS Mod,2013-05-07 11:50:00,
2013-05-07 07:55:00,51.9,51.1,29.85,NE,40,0.0,2.0,97,0.00,,,0.05,Wunderground PWS Mod,2013-05-07 11:55:00,
2013-05-07 07:59:00,47.0,46.7,29.83,East,91,0.0,9.0,99,0.00,,,0.00,Wunderground PWS Mod,2013-05-07 11:59:00,
2013-05-07 08:00:00,51.9,51.1,29.85,NE,40,0.0,2.0,97,0.00,,,0.05,Wunderground PWS Mod,2013-05-07 12:00:00,
2013-05-07 08:05:00,51.9,51.1,29.85,NE,40,0.0,2.0,97,0.00,,,0.05,Wunderground PWS Mod,2013-05-07 12:05:00,
2013-05-07 08:09:00,47.7,47.4,29.83,East,91,0.0,9.0,99,0.00,,,0.00,Wunderground PWS Mod,2013-05-07 12:09:00,
2013-05-07 08:10:00,51.9,51.1,29.85,NE,40,0.0,2.0,97,0.00,,,0.05,Wunderground PWS Mod,2013-05-07 12:10:00,
2013-05-07 08:15:00,55.6,52.1,29.85,NE,40,0.0,3.0,88,0.00,,,0.05,Wunderground PWS Mod,2013-05-07 12:15:00,
2013-05-07 08:19:00,48.6,48.3,29.84,East,92,0.0,9.0,99,0.00,,,0.00,Wunderground PWS Mod,2013-05-07 12:19:00,
2013-05-07 08:20:00,55.6,52.1,29.85,NE,40,0.0,3.0,88,0.00,,,0.05,Wunderground PWS Mod,2013-05-07 12:20:00,
2013-05-07 08:25:00,55.6,52.1,29.85,NE,40,0.0,3.0,88,0.00,,,0.05,Wunderground PWS Mod,2013-05-07 12:25:00,
2013-05-07 08:29:00,49.5,49.2,29.84,East,95,0.0,9.0,99,0.00,,,0.00,Wunderground PWS Mod,2013-05-07 12:29:00,
2013-05-07 08:30:00,55.6,52.1,29.85,NE,40,0.0,3.0,88,0.00,,,0.05,Wunderground PWS Mod,2013-05-07 12:30:00,
2013-05-07 08:35:00,55.6,52.1,29.85,NE,40,0.0,3.0,88,0.00,,,0.05,Wunderground PWS Mod,2013-05-07 12:35:00,
2013-05-07 08:39:00,50.2,49.9,29.84,East,80,0.0,9.0,99,0.00,,,0.00,Wunderground PWS Mod,2013-05-07 12:39:00,
2013-05-07 08:40:00,55.6,52.1,29.85,NE,40,0.0,3.0,88,0.00,,,0.05,Wunderground PWS Mod,2013-05-07 12:40:00,
2013-05-07 08:45:00,60.4,52.4,29.85,ESE,110,2.0,7.0,75,0.00,,,0.05,Wunderground PWS Mod,2013-05-07 12:45:00,
2013-05-07 08:49:00,51.0,50.5,29.84,East,80,0.0,9.0,98,0.00,,,0.00,Wunderground PWS Mod,2013-05-07 12:49:00,
2013-05-07 08:50:00,60.4,52.4,29.85,ESE,110,2.0,7.0,75,0.00,,,0.05,Wunderground PWS Mod,2013-05-07 12:50:00,
2013-05-07 08:55:00,60.4,52.4,29.85,ESE,110,2.0,7.0,75,0.00,,,0.05,Wunderground PWS Mod,2013-05-07 12:55:00,
2013-05-07 08:59:00,51.9,51.1,29.85,East,80,0.0,9.0,97,0.00,,,0.00,Wunderground PWS Mod,2013-05-07 12:59:00,
2013-05-07 09:00:00,60.4,52.4,29.85,ESE,110,2.0,7.0,75,0.00,,,0.05,Wunderground PWS Mod,2013-05-07 13:00:00,
2013-05-07 09:05:00,60.4,52.4,29.85,ESE,110,2.0,7.0,75,0.00,,,0.05,Wunderground PWS Mod,2013-05-07 13:05:00,
2013-05-07 09:09:00,52.9,51.2,29.85,East,80,0.0,9.0,94,0.00,,,0.00,Wunderground PWS Mod,2013-05-07 13:09:00,
2013-05-07 09:10:00,60.4,52.4,29.85,ESE,110,2.0,7.0,75,0.00,,,0.05,Wunderground PWS Mod,2013-05-07 13:10:00,
2013-05-07 09:15:00,61.2,50.2,29.85,ESE,110,3.0,7.0,67,0.00,,,0.05,Wunderground PWS Mod,2013-05-07 13:15:00,
2013-05-07 09:19:00,54.1,52.1,29.85,East,80,0.0,9.0,93,0.00,,,0.00,Wunderground PWS Mod,2013-05-07 13:19:00,
2013-05-07 09:20:00,61.2,50.2,29.85,ESE,110,3.0,7.0,67,0.00,,,0.05,Wunderground PWS Mod,2013-05-07 13:20:00,
2013-05-07 09:24:00,54.8,52.2,29.85,East,80,0.0,9.0,91,0.00,,,0.00,Wunderground PWS Mod,2013-05-07 13:24:00,
2013-05-07 09:25:00,61.2,50.2,29.85,ESE,110,3.0,7.0,67,0.00,,,0.05,Wunderground PWS Mod,2013-05-07 13:25:00,
2013-05-07 09:30:00,61.2,50.2,29.85,ESE,110,3.0,7.0,67,0.00,,,0.05,Wunderground PWS Mod,2013-05-07 13:30:00,
2013-05-07 09:34:00,56.3,51.8,29.85,East,80,2.0,9.0,85,0.00,,,0.00,Wunderground PWS Mod,2013-05-07 13:34:00,
2013-05-07 09:35:00,61.2,50.2,29.85,ESE,110,3.0,7.0,67,0.00,,,0.05,Wunderground PWS Mod,2013-05-07 13:35:00,
2013-05-07 09:40:00,61.2,50.2,29.85,ESE,110,3.0,7.0,67,0.00,,,0.05,Wunderground PWS Mod,2013-05-07 13:40:00,
2013-05-07 09:44:00,57.8,50.6,29.85,West,268,4.0,9.0,77,0.00,,,0.00,Wunderground PWS Mod,2013-05-07 13:44:00,
2013-05-07 09:45:00,61.8,50.7,29.86,ESE,110,2.0,9.0,67,0.00,,,0.05,Wunderground PWS Mod,2013-05-07 13:45:00,
2013-05-07 09:50:00,61.8,50.7,29.86,ESE,110,2.0,9.0,67,0.00,,,0.05,Wunderground PWS Mod,2013-05-07 13:50:00,
2013-05-07 09:54:00,59.5,50.5,29.85,WSW,255,1.0,9.0,72,0.00,,,0.00,Wunderground PWS Mod,2013-05-07 13:54:00,
2013-05-07 09:55:00,61.8,50.7,29.86,ESE,110,2.0,9.0,67,0.00,,,0.05,Wunderground PWS Mod,2013-05-07 13:55:00,
2013-05-07 10:00:00,61.8,50.7,29.86,ESE,110,2.0,9.0,67,0.00,,,0.05,Wunderground PWS Mod,2013-05-07 14:00:00,
2013-05-07 10:04:00,60.7,51.6,29.85,WSW,248,3.0,9.0,72,0.00,,,0.00,Wunderground PWS Mod,2013-05-07 14:04:00,
2013-05-07 10:05:00,61.8,50.7,29.86,ESE,110,2.0,9.0,67,0.00,,,0.05,Wunderground PWS Mod,2013-05-07 14:05:00,
2013-05-07 10:10:00,61.8,50.7,29.86,ESE,110,2.0,9.0,67,0.00,,,0.05,Wunderground PWS Mod,2013-05-07 14:10:00,
2013-05-07 10:14:00,61.3,52.2,29.85,West,261,4.0,9.0,72,0.00,,,0.00,Wunderground PWS Mod,2013-05-07 14:14:00,
2013-05-07 10:15:00,63.1,50.7,29.86,East,100,4.0,11.0,64,0.00,,,0.05,Wunderground PWS Mod,2013-05-07 14:15:00,
2013-05-07 10:20:00,63.1,50.7,29.86,East,100,4.0,11.0,64,0.00,,,0.05,Wunderground PWS Mod,2013-05-07 14:20:00,
2013-05-07 10:24:00,61.3,51.4,29.85,WSW,253,5.0,9.0,70,0.00,,,0.00,Wunderground PWS Mod,2013-05-07 14:24:00,
2013-05-07 10:25:00,63.1,50.7,29.86,East,100,4.0,11.0,64,0.00,,,0.05,Wunderground PWS Mod,2013-05-07 14:25:00,
2013-05-07 10:29:00,61.2,50.2,29.85,WSW,246,2.0,9.0,67,0.00,,,0.00,Wunderground PWS Mod,2013-05-07 14:29:00,
2013-05-07 10:30:00,63.1,50.7,29.86,East,100,4.0,11.0,64,0.00,,,0.05,Wunderground PWS Mod,2013-05-07 14:30:00,
2013-05-07 10:35:00,63.1,50.7,29.86,East,100,4.0,11.0,64,0.00,,,0.05,Wunderground PWS Mod,2013-05-07 14:35:00,
2013-05-07 10:39:00,61.5,50.4,29.85,WSW,240,7.0,9.0,67,0.00,,,0.00,Wunderground PWS Mod,2013-05-07 14:39:00,
2013-05-07 10:40:00,63.1,50.7,29.86,East,100,4.0,11.0,64,0.00,,,0.05,Wunderground PWS Mod,2013-05-07 14:40:00,
2013-05-07 10:45:00,62.6,50.7,29.85,ESE,120,3.0,7.0,65,0.00,,,0.05,Wunderground PWS Mod,2013-05-07 14:45:00,
2013-05-07 10:49:00,61.5,50.4,29.86,SW,221,0.0,9.0,67,0.00,,,0.00,Wunderground PWS Mod,2013-05-07 14:49:00,
2013-05-07 10:50:00,62.6,50.7,29.85,ESE,120,3.0,7.0,65,0.00,,,0.05,Wunderground PWS Mod,2013-05-07 14:50:00,
2013-05-07 10:55:00,62.6,50.7,29.85,ESE,120,3.0,7.0,65,0.00,,,0.05,Wunderground PWS Mod,2013-05-07 14:55:00,
2013-05-07 10:59:00,61.8,50.7,29.86,SSW,202,3.0,9.0,67,0.00,,,0.00,Wunderground PWS Mod,2013-05-07 14:59:00,
2013-05-07 11:00:00,62.6,50.7,29.85,ESE,120,3.0,7.0,65,0.00,,,0.05,Wunderground PWS Mod,2013-05-07 15:00:00,
2013-05-07 11:04:00,62.4,52.1,29.86,SW,221,1.0,9.0,69,0.00,,,0.00,Wunderground PWS Mod,2013-05-07 15:04:00,
2013-05-07 11:05:00,62.6,50.7,29.85,ESE,120,3.0,7.0,65,0.00,,,0.05,Wunderground PWS Mod,2013-05-07 15:05:00,
2013-05-07 11:10:00,62.6,50.7,29.85,ESE,120,3.0,7.0,65,0.00,,,0.05,Wunderground PWS Mod,2013-05-07 15:10:00,
2013-05-07 11:14:00,63.5,52.3,29.86,West,275,5.0,9.0,67,0.00,,,0.00,Wunderground PWS Mod,2013-05-07 15:14:00,
2013-05-07 11:15:00,62.4,50.5,29.84,East,90,3.0,9.0,65,0.00,,,0.05,Wunderground PWS Mod,2013-05-07 15:15:00,
2013-05-07 11:20:00,62.4,50.5,29.84,East,90,3.0,9.0,65,0.00,,,0.05,Wunderground PWS Mod,2013-05-07 15:20:00,
2013-05-07 11:24:00,63.1,50.7,29.86,South,169,5.0,9.0,64,0.00,,,0.00,Wunderground PWS Mod,2013-05-07 15:24:00,
2013-05-07 11:25:00,62.4,50.5,29.84,East,90,3.0,9.0,65,0.00,,,0.05,Wunderground PWS Mod,2013-05-07 15:25:00,
2013-05-07 11:30:00,62.4,50.5,29.84,East,90,3.0,9.0,65,0.00,,,0.05,Wunderground PWS Mod,2013-05-07 15:30:00,
2013-05-07 11:34:00,62.7,49.1,29.86,SSE,166,1.0,9.0,61,0.00,,,0.00,Wunderground PWS Mod,2013-05-07 15:34:00,
2013-05-07 11:35:00,62.4,50.5,29.84,East,90,3.0,9.0,65,0.00,,,0.05,Wunderground PWS Mod,2013-05-07 15:35:00,
2013-05-07 11:39:00,62.7,50.8,29.86,WSW,239,1.0,9.0,65,0.00,,,0.00,Wunderground PWS Mod,2013-05-07 15:39:00,
2013-05-07 11:40:00,62.4,50.5,29.84,East,90,3.0,9.0,65,0.00,,,0.05,Wunderground PWS Mod,2013-05-07 15:40:00,
2013-05-07 11:45:00,62.9,51.4,29.84,ESE,110,3.0,7.0,66,0.00,,,0.05,Wunderground PWS Mod,2013-05-07 15:45:00,
2013-05-07 11:49:00,63.5,50.2,29.86,West,260,1.0,9.0,62,0.00,,,0.00,Wunderground PWS Mod,2013-05-07 15:49:00,
2013-05-07 11:50:00,62.9,51.4,29.84,ESE,110,3.0,7.0,66,0.00,,,0.05,Wunderground PWS Mod,2013-05-07 15:50:00,
2013-05-07 11:55:00,62.9,51.4,29.84,ESE,110,3.0,7.0,66,0.00,,,0.05,Wunderground PWS Mod,2013-05-07 15:55:00,
2013-05-07 11:59:00,62.6,50.7,29.86,SW,225,4.0,9.0,65,0.00,,,0.00,Wunderground PWS Mod,2013-05-07 15:59:00,
2013-05-07 12:00:00,62.9,51.4,29.84,ESE,110,3.0,7.0,66,0.00,,,0.05,Wunderground PWS Mod,2013-05-07 16:00:00,
2013-05-07 12:05:00,62.9,51.4,29.84,ESE,110,3.0,7.0,66,0.00,,,0.05,Wunderground PWS Mod,2013-05-07 16:05:00,
2013-05-07 12:09:00,64.0,52.0,29.86,West,270,7.0,9.0,65,0.00,,,0.00,Wunderground PWS Mod,2013-05-07 16:09:00,
2013-05-07 12:10:00,62.9,51.4,29.84,ESE,110,3.0,7.0,66,0.00,,,0.05,Wunderground PWS Mod,2013-05-07 16:10:00,
2013-05-07 12:15:00,64.2,51.3,29.83,East,100,3.0,10.0,63,0.00,,,0.05,Wunderground PWS Mod,2013-05-07 16:15:00,
2013-05-07 12:19:00,64.0,51.6,29.84,South,169,3.0,9.0,64,0.00,,,0.00,Wunderground PWS Mod,2013-05-07 16:19:00,
2013-05-07 12:20:00,64.2,51.3,29.83,East,100,3.0,10.0,63,0.00,,,0.05,Wunderground PWS Mod,2013-05-07 16:20:00,
2013-05-07 12:25:00,64.2,51.3,29.83,East,100,3.0,10.0,63,0.00,,,0.05,Wunderground PWS Mod,2013-05-07 16:25:00,
2013-05-07 12:29:00,62.4,50.5,29.84,SSE,155,2.0,9.0,65,0.00,,,0.00,Wunderground PWS Mod,2013-05-07 16:29:00,
2013-05-07 12:30:00,64.2,51.3,29.83,East,100,3.0,10.0,63,0.00,,,0.05,Wunderground PWS Mod,2013-05-07 16:30:00,
2013-05-07 12:35:00,64.2,51.3,29.83,East,100,3.0,10.0,63,0.00,,,0.05,Wunderground PWS Mod,2013-05-07 16:35:00,
2013-05-07 12:39:00,62.4,51.3,29.84,WSW,240,2.0,9.0,67,0.00,,,0.00,Wunderground PWS Mod,2013-05-07 16:39:00,
2013-05-07 12:40:00,64.2,51.3,29.83,East,100,3.0,10.0,63,0.00,,,0.05,Wunderground PWS Mod,2013-05-07 16:40:00,
2013-05-07 12:45:00,63.7,51.3,29.83,East,100,3.0,7.0,64,0.00,,,0.05,Wunderground PWS Mod,2013-05-07 16:45:00,
2013-05-07 12:49:00,62.6,50.7,29.84,SSW,194,3.0,9.0,65,0.00,,,0.00,Wunderground PWS Mod,2013-05-07 16:49:00,
2013-05-07 12:50:00,63.7,51.3,29.83,East,100,3.0,7.0,64,0.00,,,0.05,Wunderground PWS Mod,2013-05-07 16:50:00,
2013-05-07 12:55:00,63.7,51.3,29.83,East,100,3.0,7.0,64,0.00,,,0.05,Wunderground PWS Mod,2013-05-07 16:55:00,
2013-05-07 12:59:00,62.9,51.0,29.84,WSW,252,3.0,9.0,65,0.00,,,0.00,Wunderground PWS Mod,2013-05-07 16:59:00,
2013-05-07 13:00:00,63.7,51.3,29.83,East,100,3.0,7.0,64,0.00,,,0.05,Wunderground PWS Mod,2013-05-07 17:00:00,
2013-05-07 13:05:00,63.7,51.3,29.83,East,100,3.0,7.0,64,0.00,,,0.05,Wunderground PWS Mod,2013-05-07 17:05:00,
2013-05-07 13:09:00,63.4,52.2,29.84,South,186,5.0,9.0,67,0.00,,,0.00,Wunderground PWS Mod,2013-05-07 17:09:00,
2013-05-07 13:10:00,63.7,51.3,29.83,East,100,3.0,7.0,64,0.00,,,0.05,Wunderground PWS Mod,2013-05-07 17:10:00,
2013-05-07 13:15:00,64.8,51.5,29.83,East,100,3.0,10.0,62,0.00,,,0.05,Wunderground PWS Mod,2013-05-07 17:15:00,
2013-05-07 13:19:00,64.2,51.3,29.83,SSW,202,0.0,9.0,63,0.00,,,0.00,Wunderground PWS Mod,2013-05-07 17:19:00,
2013-05-07 13:20:00,64.8,51.5,29.83,East,100,3.0,10.0,62,0.00,,,0.05,Wunderground PWS Mod,2013-05-07 17:20:00,
2013-05-07 13:25:00,64.8,51.5,29.83,East,100,3.0,10.0,62,0.00,,,0.05,Wunderground PWS Mod,2013-05-07 17:25:00,
2013-05-07 13:29:00,64.2,51.3,29.83,South,187,0.0,9.0,63,0.00,,,0.00,Wunderground PWS Mod,2013-05-07 17:29:00,
2013-05-07 13:30:00,64.8,51.5,29.83,East,100,3.0,10.0,62,0.00,,,0.05,Wunderground PWS Mod,2013-05-07 17:30:00,
2013-05-07 13:35:00,64.8,51.5,29.83,East,100,3.0,10.0,62,0.00,,,0.05,Wunderground PWS Mod,2013-05-07 17:35:00,
2013-05-07 13:39:00,63.7,50.9,29.83,SW,232,2.0,9.0,63,0.00,,,0.00,Wunderground PWS Mod,2013-05-07 17:39:00,
2013-05-07 13:40:00,64.8,51.5,29.83,East,100,3.0,10.0,62,0.00,,,0.05,Wunderground PWS Mod,2013-05-07 17:40:00,
2013-05-07 13:45:00,66.8,53.4,29.81,East,100,4.0,13.0,62,0.00,,,0.05,Wunderground PWS Mod,2013-05-07 17:45:00,
2013-05-07 13:49:00,63.4,51.0,29.83,SW,226,2.0,9.0,64,0.00,,,0.00,Wunderground PWS Mod,2013-05-07 17:49:00,
2013-05-07 13:50:00,66.8,53.4,29.81,East,100,4.0,13.0,62,0.00,,,0.05,Wunderground PWS Mod,2013-05-07 17:50:00,
2013-05-07 13:54:00,63.5,51.5,29.83,South,178,6.0,9.0,65,0.00,,,0.00,Wunderground PWS Mod,2013-05-07 17:54:00,
2013-05-07 13:55:00,66.8,53.4,29.81,East,100,4.0,13.0,62,0.00,,,0.05,Wunderground PWS Mod,2013-05-07 17:55:00,
2013-05-07 14:00:00,66.8,53.4,29.81,East,100,4.0,13.0,62,0.00,,,0.05,Wunderground PWS Mod,2013-05-07 18:00:00,
2013-05-07 14:04:00,63.9,51.1,29.83,WSW,251,6.0,9.0,63,0.00,,,0.00,Wunderground PWS Mod,2013-05-07 18:04:00,
2013-05-07 14:05:00,66.8,53.4,29.81,East,100,4.0,13.0,62,0.00,,,0.05,Wunderground PWS Mod,2013-05-07 18:05:00,
2013-05-07 14:10:00,66.8,53.4,29.81,East,100,4.0,13.0,62,0.00,,,0.05,Wunderground PWS Mod,2013-05-07 18:10:00,
2013-05-07 14:14:00,64.0,52.0,29.83,SW,224,3.0,9.0,65,0.00,,,0.00,Wunderground PWS Mod,2013-05-07 18:14:00,
2013-05-07 14:15:00,64.5,52.9,29.82,East,90,4.0,10.0,66,0.00,,,0.05,Wunderground PWS Mod,2013-05-07 18:15:00,
2013-05-07 14:20:00,64.5,52.9,29.82,East,90,4.0,10.0,66,0.00,,,0.05,Wunderground PWS Mod,2013-05-07 18:20:00,
2013-05-07 14:24:00,64.3,52.3,29.83,SSW,197,5.0,9.0,65,0.00,,,0.00,Wunderground PWS Mod,2013-05-07 18:24:00,
2013-05-07 14:25:00,64.5,52.9,29.82,East,90,4.0,10.0,66,0.00,,,0.05,Wunderground PWS Mod,2013-05-07 18:25:00,
2013-05-07 14:29:00,64.8,51.5,29.82,SSW,199,5.0,9.0,62,0.00,,,0.00,Wunderground PWS Mod,2013-05-07 18:29:00,
2013-05-07 14:30:00,64.5,52.9,29.82,East,90,4.0,10.0,66,0.00,,,0.05,Wunderground PWS Mod,2013-05-07 18:30:00,
2013-05-07 14:35:00,64.5,52.9,29.82,East,90,4.0,10.0,66,0.00,,,0.05,Wunderground PWS Mod,2013-05-07 18:35:00,
2013-05-07 14:39:00,65.0,49.9,29.82,WSW,248,7.0,9.0,58,0.00,,,0.00,Wunderground PWS Mod,2013-05-07 18:39:00,
2013-05-07 14:40:00,64.5,52.9,29.82,East,90,4.0,10.0,66,0.00,,,0.05,Wunderground PWS Mod,2013-05-07 18:40:00,
2013-05-07 14:45:00,65.8,51.1,29.81,ESE,110,2.0,6.0,59,0.00,,,0.05,Wunderground PWS Mod,2013-05-07 18:45:00,
2013-05-07 14:49:00,65.0,52.1,29.82,SSE,162,1.0,9.0,63,0.00,,,0.00,Wunderground PWS Mod,2013-05-07 18:49:00,
2013-05-07 14:50:00,65.8,51.1,29.81,ESE,110,2.0,6.0,59,0.00,,,0.05,Wunderground PWS Mod,2013-05-07 18:50:00,
2013-05-07 14:55:00,65.8,51.1,29.81,ESE,110,2.0,6.0,59,0.00,,,0.05,Wunderground PWS Mod,2013-05-07 18:55:00,
2013-05-07 14:59:00,66.8,53.4,29.81,SW,229,6.0,9.0,62,0.00,,,0.00,Wunderground PWS Mod,2013-05-07 18:59:00,
2013-05-07 15:00:00,65.8,51.1,29.81,ESE,110,2.0,6.0,59,0.00,,,0.05,Wunderground PWS Mod,2013-05-07 19:00:00,
2013-05-07 15:05:00,65.8,51.1,29.81,ESE,110,2.0,6.0,59,0.00,,,0.05,Wunderground PWS Mod,2013-05-07 19:05:00,
2013-05-07 15:09:00,66.9,53.5,29.81,SSW,213,4.0,9.0,62,0.00,,,0.00,Wunderground PWS Mod,2013-05-07 19:09:00,
2013-05-07 15:10:00,65.8,51.1,29.81,ESE,110,2.0,6.0,59,0.00,,,0.05,Wunderground PWS Mod,2013-05-07 19:10:00,
2013-05-07 15:15:00,67.6,50.4,29.81,ESE,110,3.0,10.0,54,0.00,,,0.05,Wunderground PWS Mod,2013-05-07 19:15:00,
2013-05-07 15:19:00,65.5,53.0,29.81,SSW,192,2.0,9.0,64,0.00,,,0.00,Wunderground PWS Mod,2013-05-07 19:19:00,
2013-05-07 15:20:00,67.6,50.4,29.81,ESE,110,3.0,10.0,54,0.00,,,0.05,Wunderground PWS Mod,2013-05-07 19:20:00,
2013-05-07 15:25:00,67.6,50.4,29.81,ESE,110,3.0,10.0,54,0.00,,,0.05,Wunderground PWS Mod,2013-05-07 19:25:00,
2013-05-07 15:29:00,64.5,52.9,29.82,SSW,194,2.0,9.0,66,0.00,,,0.00,Wunderground PWS Mod,2013-05-07 19:29:00,
2013-05-07 15:30:00,67.6,50.4,29.81,ESE,110,3.0,10.0,54,0.00,,,0.05,Wunderground PWS Mod,2013-05-07 19:30:00,
2013-05-07 15:35:00,67.6,50.4,29.81,ESE,110,3.0,10.0,54,0.00,,,0.05,Wunderground PWS Mod,2013-05-07 19:35:00,
2013-05-07 15:39:00,64.5,52.9,29.82,SW,219,2.0,9.0,66,0.00,,,0.00,Wunderground PWS Mod,2013-05-07 19:39:00,
2013-05-07 15:40:00,67.6,50.4,29.81,ESE,110,3.0,10.0,54,0.00,,,0.05,Wunderground PWS Mod,2013-05-07 19:40:00,
2013-05-07 15:45:00,67.8,52.5,29.81,East,100,4.0,12.0,58,0.00,,,0.05,Wunderground PWS Mod,2013-05-07 19:45:00,
2013-05-07 15:49:00,65.0,52.5,29.81,WSW,244,0.0,9.0,64,0.00,,,0.00,Wunderground PWS Mod,2013-05-07 19:49:00,
2013-05-07 15:50:00,67.8,52.5,29.81,East,100,4.0,12.0,58,0.00,,,0.05,Wunderground PWS Mod,2013-05-07 19:50:00,
2013-05-07 15:54:00,65.5,53.0,29.81,WSW,246,3.0,9.0,64,0.00,,,0.00,Wunderground PWS Mod,2013-05-07 19:54:00,
2013-05-07 15:55:00,67.8,52.5,29.81,East,100,4.0,12.0,58,0.00,,,0.05,Wunderground PWS Mod,2013-05-07 19:55:00,
2013-05-07 16:00:00,67.8,52.5,29.81,East,100,4.0,12.0,58,0.00,,,0.05,Wunderground PWS Mod,2013-05-07 20:00:00,
2013-05-07 16:04:00,65.6,50.9,29.81,WSW,254,0.0,9.0,59,0.00,,,0.00,Wunderground PWS Mod,2013-05-07 20:04:00,
2013-05-07 16:05:00,67.8,52.5,29.81,East,100,4.0,12.0,58,0.00,,,0.05,Wunderground PWS Mod,2013-05-07 20:05:00,
2013-05-07 16:10:00,67.8,52.5,29.81,East,100,4.0,12.0,58,0.00,,,0.05,Wunderground PWS Mod,2013-05-07 20:10:00,
2013-05-07 16:14:00,66.1,51.4,29.81,South,180,3.0,9.0,59,0.00,,,0.00,Wunderground PWS Mod,2013-05-07 20:14:00,
2013-05-07 16:15:00,67.9,51.1,29.81,East,100,4.0,12.0,55,0.00,,,0.05,Wunderground PWS Mod,2013-05-07 20:15:00,
2013-05-07 16:20:00,67.9,51.1,29.81,East,100,4.0,12.0,55,0.00,,,0.05,Wunderground PWS Mod,2013-05-07 20:20:00,
2013-05-07 16:24:00,67.6,50.9,29.81,SSW,208,3.0,9.0,55,0.00,,,0.00,Wunderground PWS Mod,2013-05-07 20:24:00,
2013-05-07 16:25:00,67.9,51.1,29.81,East,100,4.0,12.0,55,0.00,,,0.05,Wunderground PWS Mod,2013-05-07 20:25:00,
2013-05-07 16:30:00,67.9,51.1,29.81,East,100,4.0,12.0,55,0.00,,,0.05,Wunderground PWS Mod,2013-05-07 20:30:00,
2013-05-07 16:34:00,67.8,52.9,29.81,West,259,4.0,9.0,59,0.00,,,0.00,Wunderground PWS Mod,2013-05-07 20:34:00,
2013-05-07 16:35:00,67.9,51.1,29.81,East,100,4.0,12.0,55,0.00,,,0.05,Wunderground PWS Mod,2013-05-07 20:35:00,
2013-05-07 16:40:00,67.9,51.1,29.81,East,100,4.0,12.0,55,0.00,,,0.05,Wunderground PWS Mod,2013-05-07 20:40:00,
2013-05-07 16:44:00,67.9,51.1,29.81,SW,220,5.0,9.0,55,0.00,,,0.00,Wunderground PWS Mod,2013-05-07 20:44:00,
2013-05-07 16:45:00,67.6,51.3,29.81,East,100,4.0,10.0,56,0.00,,,0.05,Wunderground PWS Mod,2013-05-07 20:45:00,
2013-05-07 16:50:00,67.6,51.3,29.81,East,100,4.0,10.0,56,0.00,,,0.05,Wunderground PWS Mod,2013-05-07 20:50:00,
2013-05-07 16:54:00,67.8,51.5,29.81,SW,230,3.0,9.0,56,0.00,,,0.00,Wunderground PWS Mod,2013-05-07 20:54:00,
2013-05-07 16:55:00,67.6,51.3,29.81,East,100,4.0,10.0,56,0.00,,,0.05,Wunderground PWS Mod,2013-05-07 20:55:00,
2013-05-07 17:00:00,67.6,51.3,29.81,East,100,4.0,10.0,56,0.00,,,0.05,Wunderground PWS Mod,2013-05-07 21:00:00,
2013-05-07 17:04:00,68.3,52.0,29.81,West,267,5.0,9.0,56,0.00,,,0.00,Wunderground PWS Mod,2013-05-07 21:04:00,
2013-05-07 17:05:00,67.6,51.3,29.81,East,100,4.0,10.0,56,0.00,,,0.05,Wunderground PWS Mod,2013-05-07 21:05:00,
2013-05-07 17:10:00,67.6,51.3,29.81,East,100,4.0,10.0,56,0.00,,,0.05,Wunderground PWS Mod,2013-05-07 21:10:00,
2013-05-07 17:14:00,68.1,51.8,29.81,WSW,254,2.0,9.0,56,0.00,,,0.00,Wunderground PWS Mod,2013-05-07 21:14:00,
2013-05-07 17:15:00,66.1,51.8,29.82,East,100,4.0,11.0,60,0.00,,,0.05,Wunderground PWS Mod,2013-05-07 21:15:00,
2013-05-07 17:20:00,66.1,51.8,29.82,East,100,4.0,11.0,60,0.00,,,0.05,Wunderground PWS Mod,2013-05-07 21:20:00,
2013-05-07 17:24:00,67.9,52.6,29.81,SW,234,6.0,9.0,58,0.00,,,0.00,Wunderground PWS Mod,2013-05-07 21:24:00,
2013-05-07 17:25:00,66.1,51.8,29.82,East,100,4.0,11.0,60,0.00,,,0.05,Wunderground PWS Mod,2013-05-07 21:25:00,
2013-05-07 17:30:00,66.1,51.8,29.82,East,100,4.0,11.0,60,0.00,,,0.05,Wunderground PWS Mod,2013-05-07 21:30:00,
2013-05-07 17:34:00,67.9,51.1,29.81,WSW,254,3.0,9.0,55,0.00,,,0.00,Wunderground PWS Mod,2013-05-07 21:34:00,
2013-05-07 17:35:00,66.1,51.8,29.82,East,100,4.0,11.0,60,0.00,,,0.05,Wunderground PWS Mod,2013-05-07 21:35:00,
2013-05-07 17:40:00,66.1,51.8,29.82,East,100,4.0,11.0,60,0.00,,,0.05,Wunderground PWS Mod,2013-05-07 21:40:00,
2013-05-07 17:44:00,67.8,52.0,29.81,SW,229,5.0,9.0,57,0.00,,,0.00,Wunderground PWS Mod,2013-05-07 21:44:00,
2013-05-07 17:45:00,64.8,51.5,29.82,East,90,3.0,9.0,62,0.00,,,0.05,Wunderground PWS Mod,2013-05-07 21:45:00,
2013-05-07 17:50:00,64.8,51.5,29.82,East,90,3.0,9.0,62,0.00,,,0.05,Wunderground PWS Mod,2013-05-07 21:50:00,
2013-05-07 17:54:00,67.4,52.1,29.81,South,188,4.0,9.0,58,0.00,,,0.00,Wunderground PWS Mod,2013-05-07 21:54:00,
2013-05-07 17:55:00,64.8,51.5,29.82,East,90,3.0,9.0,62,0.00,,,0.05,Wunderground PWS Mod,2013-05-07 21:55:00,
2013-05-07 18:00:00,64.8,51.5,29.82,East,90,3.0,9.0,62,0.00,,,0.05,Wunderground PWS Mod,2013-05-07 22:00:00,
2013-05-07 18:04:00,67.8,52.5,29.81,SSW,197,1.0,9.0,58,0.00,,,0.00,Wunderground PWS Mod,2013-05-07 22:04:00,
2013-05-07 18:05:00,64.8,51.5,29.82,East,90,3.0,9.0,62,0.00,,,0.05,Wunderground PWS Mod,2013-05-07 22:05:00,
2013-05-07 18:10:00,64.8,51.5,29.82,East,90,3.0,9.0,62,0.00,,,0.05,Wunderground PWS Mod,2013-05-07 22:10:00,
2013-05-07 18:14:00,67.1,52.7,29.81,SW,221,1.0,9.0,60,0.00,,,0.00,Wunderground PWS Mod,2013-05-07 22:14:00,
2013-05-07 18:15:00,63.1,51.6,29.82,East,80,1.0,6.0,66,0.00,,,0.05,Wunderground PWS Mod,2013-05-07 22:15:00,
2013-05-07 18:20:00,63.1,51.6,29.82,East,80,1.0,6.0,66,0.00,,,0.05,Wunderground PWS Mod,2013-05-07 22:20:00,
2013-05-07 18:24:00,66.3,51.1,29.81,WSW,244,1.0,9.0,58,0.00,,,0.00,Wunderground PWS Mod,2013-05-07 22:24:00,
2013-05-07 18:25:00,63.1,51.6,29.82,East,80,1.0,6.0,66,0.00,,,0.05,Wunderground PWS Mod,2013-05-07 22:25:00,
2013-05-07 18:30:00,63.1,51.6,29.82,East,80,1.0,6.0,66,0.00,,,0.05,Wunderground PWS Mod,2013-05-07 22:30:00,
2013-05-07 18:34:00,66.0,51.7,29.82,SSW,213,2.0,9.0,60,0.00,,,0.00,Wunderground PWS Mod,2013-05-07 22:34:00,
2013-05-07 18:35:00,63.1,51.6,29.82,East,80,1.0,6.0,66,0.00,,,0.05,Wunderground PWS Mod,2013-05-07 22:35:00,
2013-05-07 18:40:00,63.1,51.6,29.82,East,80,1.0,6.0,66,0.00,,,0.05,Wunderground PWS Mod,2013-05-07 22:40:00,
2013-05-07 18:44:00,65.8,52.0,29.82,WSW,242,0.0,9.0,61,0.00,,,0.00,Wunderground PWS Mod,2013-05-07 22:44:00,
2013-05-07 18:45:00,61.0,51.9,29.84,NE,50,0.0,2.0,72,0.00,,,0.05,Wunderground PWS Mod,2013-05-07 22:45:00,
2013-05-07 18:50:00,61.0,51.9,29.84,NE,50,0.0,2.0,72,0.00,,,0.05,Wunderground PWS Mod,2013-05-07 22:50:00,
2013-05-07 18:54:00,65.2,51.8,29.82,South,180,6.0,9.0,62,0.00,,,0.00,Wunderground PWS Mod,2013-05-07 22:54:00,
2013-05-07 18:55:00,61.0,51.9,29.84,NE,50,0.0,2.0,72,0.00,,,0.05,Wunderground PWS Mod,2013-05-07 22:55:00,
2013-05-07 19:00:00,61.0,51.9,29.84,NE,50,0.0,2.0,72,0.00,,,0.05,Wunderground PWS Mod,2013-05-07 23:00:00,
2013-05-07 19:04:00,64.5,50.7,29.82,South,175,0.0,9.0,61,0.00,,,0.00,Wunderground PWS Mod,2013-05-07 23:04:00,
2013-05-07 19:05:00,61.0,51.9,29.84,NE,50,0.0,2.0,72,0.00,,,0.05,Wunderground PWS Mod,2013-05-07 23:05:00,
2013-05-07 19:10:00,61.0,51.9,29.84,NE,50,0.0,2.0,72,0.00,,,0.05,Wunderground PWS Mod,2013-05-07 23:10:00,
2013-05-07 19:14:00,64.0,51.6,29.82,WSW,242,1.0,9.0,64,0.00,,,0.00,Wunderground PWS Mod,2013-05-07 23:14:00,
2013-05-07 19:15:00,61.0,51.1,29.86,SSE,150,2.0,11.0,70,0.00,,,0.05,Wunderground PWS Mod,2013-05-07 23:15:00,
2013-05-07 19:20:00,61.0,51.1,29.86,SSE,150,2.0,11.0,70,0.00,,,0.05,Wunderground PWS Mod,2013-05-07 23:20:00,
2013-05-07 19:24:00,63.4,51.4,29.82,WSW,242,0.0,9.0,65,0.00,,,0.00,Wunderground PWS Mod,2013-05-07 23:24:00,
2013-05-07 19:25:00,61.0,51.1,29.86,SSE,150,2.0,11.0,70,0.00,,,0.05,Wunderground PWS Mod,2013-05-07 23:25:00,
2013-05-07 19:30:00,61.0,51.1,29.86,SSE,150,2.0,11.0,70,0.00,,,0.05,Wunderground PWS Mod,2013-05-07 23:30:00,
2013-05-07 19:34:00,62.9,51.8,29.82,WSW,242,0.0,9.0,67,0.00,,,0.00,Wunderground PWS Mod,2013-05-07 23:34:00,
2013-05-07 19:35:00,61.0,51.1,29.86,SSE,150,2.0,11.0,70,0.00,,,0.05,Wunderground PWS Mod,2013-05-07 23:35:00,
2013-05-07 19:40:00,61.0,51.1,29.86,SSE,150,2.0,11.0,70,0.00,,,0.05,Wunderground PWS Mod,2013-05-07 23:40:00,
2013-05-07 19:44:00,62.1,52.2,29.83,WSW,242,0.0,9.0,70,0.00,,,0.00,Wunderground PWS Mod,2013-05-07 23:44:00,
2013-05-07 19:45:00,58.9,52.7,29.87,SSE,150,1.0,10.0,80,0.04,,,0.05,Wunderground PWS Mod,2013-05-07 23:45:00,
2013-05-07 19:49:00,61.8,52.3,29.83,ESE,106,0.0,9.0,71,0.00,,,0.00,Wunderground PWS Mod,2013-05-07 23:49:00,
2013-05-07 19:50:00,58.9,52.7,29.87,SSE,150,1.0,10.0,80,0.04,,,0.05,Wunderground PWS Mod,2013-05-07 23:50:00,
2013-05-07 19:55:00,58.9,52.7,29.87,SSE,150,1.0,10.0,80,0.04,,,0.05,Wunderground PWS Mod,2013-05-07 23:55:00,
2013-05-07 19:59:00,61.0,51.9,29.84,ESE,106,0.0,9.0,72,0.00,,,0.00,Wunderground PWS Mod,2013-05-07 23:59:00,
2013-05-07 20:00:00,58.9,52.7,29.87,SSE,150,1.0,10.0,80,0.04,,,0.05,Wunderground PWS Mod,2013-05-08 00:00:00,
2013-05-07 20:05:00,58.9,52.7,29.87,SSE,150,1.0,10.0,80,0.04,,,0.05,Wunderground PWS Mod,2013-05-08 00:05:00,
2013-05-07 20:09:00,60.7,52.0,29.84,NNW,335,1.0,9.0,73,0.00,,,0.00,Wunderground PWS Mod,2013-05-08 00:09:00,
2013-05-07 20:10:00,58.9,52.7,29.87,SSE,150,1.0,10.0,80,0.04,,,0.05,Wunderground PWS Mod,2013-05-08 00:10:00,
2013-05-07 20:15:00,56.2,53.3,29.87,SSE,150,0.0,4.0,90,0.04,,,0.05,Wunderground PWS Mod,2013-05-08 00:15:00,
2013-05-07 20:19:00,60.9,51.8,29.86,NNW,338,3.0,9.0,72,0.00,,,0.00,Wunderground PWS Mod,2013-05-08 00:19:00,
2013-05-07 20:20:00,56.2,53.3,29.87,SSE,150,0.0,4.0,90,0.04,,,0.05,Wunderground PWS Mod,2013-05-08 00:20:00,
2013-05-07 20:25:00,56.2,53.3,29.87,SSE,150,0.0,4.0,90,0.04,,,0.05,Wunderground PWS Mod,2013-05-08 00:25:00,
2013-05-07 20:29:00,61.0,51.1,29.86,North,350,2.0,9.0,70,0.00,,,0.00,Wunderground PWS Mod,2013-05-08 00:29:00,
2013-05-07 20:30:00,56.2,53.3,29.87,SSE,150,0.0,4.0,90,0.04,,,0.05,Wunderground PWS Mod,2013-05-08 00:30:00,
2013-05-07 20:35:00,56.2,53.3,29.87,SSE,150,0.0,4.0,90,0.04,,,0.05,Wunderground PWS Mod,2013-05-08 00:35:00,
2013-05-07 20:39:00,60.9,51.8,29.86,NNW,331,3.0,9.0,72,0.00,,,0.00,Wunderground PWS Mod,2013-05-08 00:39:00,
2013-05-07 20:40:00,56.2,53.3,29.87,SSE,150,0.0,4.0,90,0.04,,,0.05,Wunderground PWS Mod,2013-05-08 00:40:00,
2013-05-07 20:45:00,55.7,53.4,29.88,SSE,150,0.0,1.0,92,0.00,,,0.05,Wunderground PWS Mod,2013-05-08 00:45:00,
2013-05-07 20:49:00,59.9,52.0,29.87,NNW,333,1.0,9.0,75,0.00,,,0.00,Wunderground PWS Mod,2013-05-08 00:49:00,
2013-05-07 20:50:00,55.7,53.4,29.88,SSE,150,0.0,1.0,92,0.00,,,0.05,Wunderground PWS Mod,2013-05-08 00:50:00,
2013-05-07 20:55:00,55.7,53.4,29.88,SSE,150,0.0,1.0,92,0.00,,,0.05,Wunderground PWS Mod,2013-05-08 00:55:00,
2013-05-07 20:59:00,58.9,52.4,29.87,NNW,333,0.0,9.0,79,0.09,,,0.04,Wunderground PWS Mod,2013-05-08 00:59:00,
2013-05-07 21:00:00,55.7,53.4,29.88,SSE,150,0.0,1.0,92,0.00,,,0.05,Wunderground PWS Mod,2013-05-08 01:00:00,
2013-05-07 21:05:00,55.7,53.4,29.88,SSE,150,0.0,1.0,92,0.00,,,0.05,Wunderground PWS Mod,2013-05-08 01:05:00,
2013-05-07 21:09:00,57.6,52.8,29.87,NNW,333,0.0,9.0,84,0.04,,,0.04,Wunderground PWS Mod,2013-05-08 01:09:00,
2013-05-07 21:10:00,55.7,53.4,29.88,SSE,150,0.0,1.0,92,0.00,,,0.05,Wunderground PWS Mod,2013-05-08 01:10:00,
2013-05-07 21:15:00,55.1,52.8,29.88,N/A,-327680,0.0,0.0,92,0.00,,,0.05,Wunderground PWS Mod,2013-05-08 01:15:00,
2013-05-07 21:19:00,56.9,53.4,29.86,NNW,337,1.0,9.0,88,0.00,,,0.04,Wunderground PWS Mod,2013-05-08 01:19:00,
2013-05-07 21:20:00,55.1,52.8,29.88,N/A,-327680,0.0,0.0,92,0.00,,,0.05,Wunderground PWS Mod,2013-05-08 01:20:00,
2013-05-07 21:25:00,55.1,52.8,29.88,N/A,-327680,0.0,0.0,92,0.00,,,0.05,Wunderground PWS Mod,2013-05-08 01:25:00,
2013-05-07 21:29:00,56.3,53.4,29.87,NNW,337,0.0,9.0,90,0.00,,,0.04,Wunderground PWS Mod,2013-05-08 01:29:00,
2013-05-07 21:30:00,55.1,52.8,29.88,N/A,-327680,0.0,0.0,92,0.00,,,0.05,Wunderground PWS Mod,2013-05-08 01:30:00,
2013-05-07 21:35:00,55.1,52.8,29.88,N/A,-327680,0.0,0.0,92,0.00,,,0.05,Wunderground PWS Mod,2013-05-08 01:35:00,
2013-05-07 21:39:00,55.9,53.3,29.87,NNW,337,0.0,9.0,91,0.00,,,0.04,Wunderground PWS Mod,2013-05-08 01:39:00,
2013-05-07 21:40:00,55.1,52.8,29.88,N/A,-327680,0.0,0.0,92,0.00,,,0.05,Wunderground PWS Mod,2013-05-08 01:40:00,
2013-05-07 21:45:00,54.7,53.0,29.88,N/A,-327680,0.0,0.0,94,0.00,,,0.05,Wunderground PWS Mod,2013-05-08 01:45:00,
2013-05-07 21:49:00,55.9,53.3,29.88,NNW,337,0.0,9.0,91,0.00,,,0.04,Wunderground PWS Mod,2013-05-08 01:49:00,
2013-05-07 21:50:00,54.7,53.0,29.88,N/A,-327680,0.0,0.0,94,0.00,,,0.05,Wunderground PWS Mod,2013-05-08 01:50:00,
2013-05-07 21:55:00,54.7,53.0,29.88,N/A,-327680,0.0,0.0,94,0.00,,,0.05,Wunderground PWS Mod,2013-05-08 01:55:00,
2013-05-07 21:59:00,55.7,53.4,29.88,NNW,337,0.0,9.0,92,0.00,,,0.04,Wunderground PWS Mod,2013-05-08 01:59:00,
2013-05-07 22:00:00,54.7,53.0,29.88,N/A,-327680,0.0,0.0,94,0.00,,,0.05,Wunderground PWS Mod,2013-05-08 02:00:00,
2013-05-07 22:05:00,54.7,53.0,29.88,N/A,-327680,0.0,0.0,94,0.00,,,0.05,Wunderground PWS Mod,2013-05-08 02:05:00,
2013-05-07 22:09:00,55.6,53.3,29.88,NNW,337,0.0,9.0,92,0.00,,,0.04,Wunderground PWS Mod,2013-05-08 02:09:00,
2013-05-07 22:10:00,54.7,53.0,29.88,N/A,-327680,0.0,0.0,94,0.00,,,0.05,Wunderground PWS Mod,2013-05-08 02:10:00,
2013-05-07 22:15:00,54.8,53.7,29.87,N/A,-327680,0.0,0.0,96,0.00,,,0.05,Wunderground PWS Mod,2013-05-08 02:15:00,
2013-05-07 22:19:00,55.4,53.1,29.88,NNW,337,0.0,9.0,92,0.00,,,0.04,Wunderground PWS Mod,2013-05-08 02:19:00,
2013-05-07 22:20:00,54.8,53.7,29.87,N/A,-327680,0.0,0.0,96,0.00,,,0.05,Wunderground PWS Mod,2013-05-08 02:20:00,
2013-05-07 22:25:00,54.8,53.7,29.87,N/A,-327680,0.0,0.0,96,0.00,,,0.05,Wunderground PWS Mod,2013-05-08 02:25:00,
2013-05-07 22:29:00,55.1,52.8,29.88,NNW,337,0.0,9.0,92,0.00,,,0.04,Wunderground PWS Mod,2013-05-08 02:29:00,
2013-05-07 22:30:00,54.8,53.7,29.87,N/A,-327680,0.0,0.0,96,0.00,,,0.05,Wunderground PWS Mod,2013-05-08 02:30:00,
2013-05-07 22:35:00,54.8,53.7,29.87,N/A,-327680,0.0,0.0,96,0.00,,,0.05,Wunderground PWS Mod,2013-05-08 02:35:00,
2013-05-07 22:39:00,54.8,52.8,29.88,NNW,337,0.0,9.0,93,0.00,,,0.04,Wunderground PWS Mod,2013-05-08 02:39:00,
2013-05-07 22:40:00,54.8,53.7,29.87,N/A,-327680,0.0,0.0,96,0.00,,,0.05,Wunderground PWS Mod,2013-05-08 02:40:00,
2013-05-07 22:44:00,54.8,52.8,29.88,NNW,337,0.0,9.0,93,0.00,,,0.04,Wunderground PWS Mod,2013-05-08 02:44:00,
2013-05-07 22:45:00,54.7,53.9,29.87,SSE,150,0.0,1.0,97,0.01,,,0.05,Wunderground PWS Mod,2013-05-08 02:45:00,
2013-05-07 22:50:00,54.7,53.9,29.87,SSE,150,0.0,1.0,97,0.01,,,0.05,Wunderground PWS Mod,2013-05-08 02:50:00,
2013-05-07 22:54:00,54.7,53.0,29.88,NNW,337,0.0,9.0,94,0.00,,,0.04,Wunderground PWS Mod,2013-05-08 02:54:00,
2013-05-07 22:55:00,54.7,53.9,29.87,SSE,150,0.0,1.0,97,0.01,,,0.05,Wunderground PWS Mod,2013-05-08 02:55:00,
2013-05-07 23:00:00,54.7,53.9,29.87,SSE,150,0.0,1.0,97,0.01,,,0.05,Wunderground PWS Mod,2013-05-08 03:00:00,
2013-05-07 23:04:00,54.8,53.4,29.88,NNW,337,0.0,9.0,95,0.00,,,0.04,Wunderground PWS Mod,2013-05-08 03:04:00,
2013-05-07 23:05:00,54.7,53.9,29.87,SSE,150,0.0,1.0,97,0.01,,,0.05,Wunderground PWS Mod,2013-05-08 03:05:00,
2013-05-07 23:10:00,54.7,53.9,29.87,SSE,150,0.0,1.0,97,0.01,,,0.05,Wunderground PWS Mod,2013-05-08 03:10:00,
2013-05-07 23:14:00,54.8,53.4,29.87,NNW,337,0.0,9.0,95,0.00,,,0.04,Wunderground PWS Mod,2013-05-08 03:14:00,
2013-05-07 23:15:00,54.5,53.9,29.87,N/A,-327680,0.0,0.0,98,0.01,,,0.05,Wunderground PWS Mod,2013-05-08 03:15:00,
2013-05-07 23:19:00,54.8,53.7,29.87,NNW,337,0.0,9.0,96,0.00,,,0.04,Wunderground PWS Mod,2013-05-08 03:19:00,
2013-05-07 23:20:00,54.5,53.9,29.87,N/A,-327680,0.0,0.0,98,0.01,,,0.05,Wunderground PWS Mod,2013-05-08 03:20:00,
2013-05-07 23:25:00,54.5,53.9,29.87,N/A,-327680,0.0,0.0,98,0.01,,,0.05,Wunderground PWS Mod,2013-05-08 03:25:00,
2013-05-07 23:29:00,54.8,53.7,29.87,NNW,337,0.0,9.0,96,0.00,,,0.04,Wunderground PWS Mod,2013-05-08 03:29:00,
2013-05-07 23:30:00,54.5,53.9,29.87,N/A,-327680,0.0,0.0,98,0.01,,,0.05,Wunderground PWS Mod,2013-05-08 03:30:00,
2013-05-07 23:35:00,54.5,53.9,29.87,N/A,-327680,0.0,0.0,98,0.01,,,0.05,Wunderground PWS Mod,2013-05-08 03:35:00,
2013-05-07 23:39:00,54.8,54.0,29.87,NNW,337,0.0,9.0,97,0.00,,,0.05,Wunderground PWS Mod,2013-05-08 03:39:00,
2013-05-07 23:40:00,54.5,53.9,29.87,N/A,-327680,0.0,0.0,98,0.01,,,0.05,Wunderground PWS Mod,2013-05-08 03:40:00,
2013-05-07 23:45:00,54.7,54.1,29.87,N/A,-327680,0.0,0.0,98,0.00,,,0.05,Wunderground PWS Mod,2013-05-08 03:45:00,
2013-05-07 23:49:00,54.8,54.0,29.87,NNW,337,0.0,9.0,97,0.00,,,0.05,Wunderground PWS Mod,2013-05-08 03:49:00,
2013-05-07 23:50:00,54.7,54.1,29.87,N/A,-327680,0.0,0.0,98,0.00,,,0.05,Wunderground PWS Mod,2013-05-08 03:50:00,
2013-05-07 23:55:00,54.7,54.1,29.87,N/A,-327680,0.0,0.0,98,0.00,,,0.05,Wunderground PWS Mod,2013-05-08 03:55:00,
2013-05-07 23:59:00,54.7,53.9,29.87,NNW,337,0.0,9.0,97,0.00,,,0.05,Wunderground PWS Mod,2013-05-08 03:59:00,